Time;durP1;ratioP1;P1;durP2;ratioP2;P2;SDS_P1;SDS_P2;PMS_P1;PMS_P2;Temp;Humidity;BMP_temperature;BMP_pressure;BME280_temperature;BME280_humidity;BME280_pressure;Samples;Min_cycle;Max_cycle;Signal;HPM_P1;HPM_P2
2023/04/16 00:00:06;;;;;;;;;;;;;;;;;;4916432;29;20006;-84
2023/04/16 00:02:38;;;;;;;;;;;;;;;;;;4900694;29;19916;-86
2023/04/16 00:05:03;;;;;;;;;;;;;;;;;;4896795;29;19915;-85
2023/04/16 00:07:29;;;;;;;;;;;;;;;;;;4881295;29;19915;-84
2023/04/16 00:09:54;;;;;;;;;;;;;;;;;;4903769;29;19915;-85
2023/04/16 00:12:20;;;;;;;;;;;;;;;;;;4901970;29;19919;-85
2023/04/16 00:14:45;;;;;;;;;;;;;;;;;;4919145;29;19922;-84
2023/04/16 00:17:10;;;;;;;;;;;;;;;;;;4918536;29;19915;-85
2023/04/16 00:19:36;;;;;;;;;;;;;;;;;;4918992;29;20438;-84
2023/04/16 00:22:01;;;;;;;;;;;;;;;;;;4918248;29;19947;-84
2023/04/16 00:24:27;;;;;;;;;;;;;;;;;;4919966;29;19962;-84
2023/04/16 00:26:52;;;;;;;;;;;;;;;;;;4917568;29;19916;-81
2023/04/16 00:29:18;;;;;;;;;;;;;;;;;;4916886;29;20405;-85
2023/04/16 00:31:44;;;;;;;;;;;;;;;;;;4915426;29;20025;-85
2023/04/16 00:34:09;;;;;;;;;;;;;;;;;;4915215;29;20002;-84
2023/04/16 00:36:35;;;;;;;;;;;;;;;;;;4916007;29;20414;-85
2023/04/16 00:39:00;;;;;;;;;;;;;;;;;;4899707;29;19966;-83
2023/04/16 00:41:26;;;;;;;;;;;;;;;;;;4915197;29;19934;-83
2023/04/16 00:43:51;;;;;;;;;;;;;;;;;;4916357;29;19954;-84
2023/04/16 00:46:17;;;;;;;;;;;;;;;;;;4915011;29;19919;-84
2023/04/16 00:48:42;;;;;;;;;;;;;;;;;;4915388;29;20348;-84
2023/04/16 00:51:07;;;;;;;;;;;;;;;;;;4916415;29;19943;-84
2023/04/16 00:53:33;;;;;;;;;;;;;;;;;;4916356;29;19961;-84
2023/04/16 00:55:58;;;;;;;;;;;;;;;;;;4916335;29;19919;-85
2023/04/16 00:58:24;;;;;;;;;;;;;;;;;;4899543;29;19915;-80
2023/04/16 01:00:49;;;;;;;;;;;;;;;;;;4915941;29;20065;-80
2023/04/16 01:03:14;;;;;;;;;;;;;;;;;;4915336;29;20006;-80
2023/04/16 01:05:40;;;;;;;;;;;;;;;;;;4915411;29;20302;-80
2023/04/16 01:08:05;;;;;;;;;;;;;;;;;;4916980;29;19971;-79
2023/04/16 01:10:31;;;;;;;;;;;;;;;;;;4909687;29;19926;-79
2023/04/16 01:12:56;;;;;;;;;;;;;;;;;;4897633;29;19915;-79
2023/04/16 01:15:21;;;;;;;;;;;;;;;;;;4898438;29;19923;-80
2023/04/16 01:17:47;;;;;;;;;;;;;;;;;;4898472;29;20014;-79
2023/04/16 01:20:12;;;;;;;;;;;;;;;;;;4898602;29;19922;-80
2023/04/16 01:22:38;;;;;;;;;;;;;;;;;;4880906;29;20002;-77
2023/04/16 01:25:03;;;;;;;;;;;;;;;;;;4895814;29;19967;-80
2023/04/16 01:27:28;;;;;;;;;;;;;;;;;;4897102;29;19962;-79
2023/04/16 01:29:55;;;;;;;;;;;;;;;;;;4895804;29;19915;-78
2023/04/16 01:32:25;;;;;;;;;;;;;;;;;;4895777;29;19919;-79
2023/04/16 01:34:51;;;;;;;;;;;;;;;;;;4896899;29;20010;-79
2023/04/16 01:37:16;;;;;;;;;;;;;;;;;;4897059;29;19915;-79
2023/04/16 01:39:41;;;;;;;;;;;;;;;;;;4880231;29;20439;-77
2023/04/16 01:42:07;;;;;;;;;;;;;;;;;;4896812;29;19939;-79
2023/04/16 01:44:32;;;;;;;;;;;;;;;;;;4896743;29;19916;-79
2023/04/16 01:46:57;;;;;;;;;;;;;;;;;;4895595;29;19923;-79
2023/04/16 01:49:24;;;;;;;;;;;;;;;;;;4882154;29;19951;-79
2023/04/16 01:51:50;;;;;;;;;;;;;;;;;;4883586;29;19980;-79
2023/04/16 01:54:15;;;;;;;;;;;;;;;;;;4900488;29;19921;-79
2023/04/16 01:56:41;;;;;;;;;;;;;;;;;;4899100;29;19915;-79
2023/04/16 01:59:06;;;;;;;;;;;;;;;;;;4883578;29;19959;-79
2023/04/16 02:01:36;;;;;;;;;;;;;;;;;;4905741;29;19998;-79
2023/04/16 02:04:02;;;;;;;;;;;;;;;;;;4917734;29;20006;-79
2023/04/16 02:06:27;;;;;;;;;;;;;;;;;;4917698;29;19915;-78
2023/04/16 02:08:53;;;;;;;;;;;;;;;;;;4917732;29;19979;-79
2023/04/16 02:11:18;;;;;;;;;;;;;;;;;;4898640;29;20415;-78
2023/04/16 02:13:44;;;;;;;;;;;;;;;;;;4898631;29;19916;-80
2023/04/16 02:16:09;;;;;;;;;;;;;;;;;;4882889;29;20468;-79
2023/04/16 02:18:41;;;;;;;;;;;;;;;;;;4883908;29;19915;-78
2023/04/16 02:21:07;;;;;;;;;;;;;;;;;;4898761;29;20391;-79
2023/04/16 02:23:32;;;;;;;;;;;;;;;;;;4898495;29;19921;-79
2023/04/16 02:25:59;;;;;;;;;;;;;;;;;;4899656;29;19916;-79
2023/04/16 02:28:25;;;;;;;;;;;;;;;;;;4898646;29;19915;-79
2023/04/16 02:30:50;;;;;;;;;;;;;;;;;;4898763;29;20404;-80
2023/04/16 02:33:16;;;;;;;;;;;;;;;;;;4898864;29;19920;-79
2023/04/16 02:35:53;;;;;;;;;;;;;;;;;;4899162;29;19916;-80
2023/04/16 02:38:18;;;;;;;;;;;;;;;;;;4899391;29;20212;-79
2023/04/16 02:40:46;;;;;;;;;;;;;;;;;;4899577;29;20299;-79
2023/04/16 02:43:12;;;;;;;;;;;;;;;;;;4904444;29;19919;-79
2023/04/16 02:45:37;;;;;;;;;;;;;;;;;;4911025;29;19988;-80
2023/04/16 02:48:03;;;;;;;;;;;;;;;;;;4911766;29;19915;-79
2023/04/16 02:50:28;;;;;;;;;;;;;;;;;;4909143;29;19954;-78
2023/04/16 02:52:54;;;;;;;;;;;;;;;;;;4908621;29;19947;-79
2023/04/16 02:55:19;;;;;;;;;;;;;;;;;;4903189;29;20356;-79
2023/04/16 02:57:44;;;;;;;;;;;;;;;;;;4888823;29;19922;-79
2023/04/16 03:00:10;;;;;;;;;;;;;;;;;;4901386;29;20089;-80
2023/04/16 03:02:36;;;;;;;;;;;;;;;;;;4898275;29;20276;-78
2023/04/16 03:05:01;;;;;;;;;;;;;;;;;;4898000;29;20280;-79
2023/04/16 03:07:26;;;;;;;;;;;;;;;;;;4899396;29;19915;-78
2023/04/16 03:09:52;;;;;;;;;;;;;;;;;;4898345;29;20344;-78
2023/04/16 03:12:17;;;;;;;;;;;;;;;;;;4907833;29;20294;-78
2023/04/16 03:14:43;;;;;;;;;;;;;;;;;;4918160;29;20299;-78
2023/04/16 03:17:09;;;;;;;;;;;;;;;;;;4918747;29;19923;-78
2023/04/16 03:19:34;;;;;;;;;;;;;;;;;;4918439;29;19966;-79
2023/04/16 03:21:59;;;;;;;;;;;;;;;;;;4901608;29;20601;-78
2023/04/16 03:24:25;;;;;;;;;;;;;;;;;;4901386;29;20481;-78
2023/04/16 03:26:50;;;;;;;;;;;;;;;;;;4918200;29;19921;-78
2023/04/16 03:29:16;;;;;;;;;;;;;;;;;;4917133;29;19915;-78
2023/04/16 03:31:42;;;;;;;;;;;;;;;;;;4916423;29;20302;-78
2023/04/16 03:34:07;;;;;;;;;;;;;;;;;;4916263;29;20276;-78
2023/04/16 03:36:33;;;;;;;;;;;;;;;;;;4916301;29;19926;-78
2023/04/16 03:38:58;;;;;;;;;;;;;;;;;;4916543;29;19915;-78
2023/04/16 03:41:24;;;;;;;;;;;;;;;;;;4916230;29;19919;-79
2023/04/16 03:43:49;;;;;;;;;;;;;;;;;;4916283;29;19921;-78
2023/04/16 03:46:15;;;;;;;;;;;;;;;;;;4900324;29;19965;-79
2023/04/16 03:48:40;;;;;;;;;;;;;;;;;;4917350;29;20298;-79
2023/04/16 03:51:06;;;;;;;;;;;;;;;;;;4916207;29;19920;-78
2023/04/16 03:53:32;;;;;;;;;;;;;;;;;;4916125;29;19915;-79
2023/04/16 03:55:58;;;;;;;;;;;;;;;;;;4915791;29;19922;-79
2023/04/16 03:58:23;;;;;;;;;;;;;;;;;;4917365;29;20382;-78
2023/04/16 04:00:51;;;;;;;;;;;;;;;;;;4900504;29;19916;-78
2023/04/16 04:03:17;;;;;;;;;;;;;;;;;;4900075;29;19922;-78
2023/04/16 04:05:44;;;;;;;;;;;;;;;;;;4900220;29;19922;-79
2023/04/16 04:08:12;;;;;;;;;;;;;;;;;;4915835;29;19916;-79
2023/04/16 04:10:37;;;;;;;;;;;;;;;;;;4917234;29;19925;-78
2023/04/16 04:13:04;;;;;;;;;;;;;;;;;;4898973;29;19915;-79
2023/04/16 04:15:29;;;;;;;;;;;;;;;;;;4901742;29;20061;-79
2023/04/16 04:17:55;;;;;;;;;;;;;;;;;;4900760;29;19915;-78
2023/04/16 04:20:21;;;;;;;;;;;;;;;;;;4887096;29;19923;-79
2023/04/16 04:22:46;;;;;;;;;;;;;;;;;;4900529;29;19915;-79
2023/04/16 04:25:12;;;;;;;;;;;;;;;;;;4884915;29;19970;-78
2023/04/16 04:27:37;;;;;;;;;;;;;;;;;;4890616;29;19954;-79
2023/04/16 04:30:06;;;;;;;;;;;;;;;;;;4915560;29;19971;-79
2023/04/16 04:32:32;;;;;;;;;;;;;;;;;;4915337;29;19919;-78
2023/04/16 04:34:58;;;;;;;;;;;;;;;;;;4915696;29;19915;-79
2023/04/16 04:37:23;;;;;;;;;;;;;;;;;;4899504;29;19975;-79
2023/04/16 04:39:49;;;;;;;;;;;;;;;;;;4915292;29;19956;-79
2023/04/16 04:42:14;;;;;;;;;;;;;;;;;;4916320;29;19916;-78
2023/04/16 04:44:40;;;;;;;;;;;;;;;;;;4914888;29;20420;-78
2023/04/16 04:47:06;;;;;;;;;;;;;;;;;;4915055;29;19922;-79
2023/04/16 04:49:32;;;;;;;;;;;;;;;;;;4915055;29;20316;-78
2023/04/16 04:51:57;;;;;;;;;;;;;;;;;;4916050;29;19930;-79
2023/04/16 04:54:23;;;;;;;;;;;;;;;;;;4916241;29;19954;-78
2023/04/16 04:56:49;;;;;;;;;;;;;;;;;;4916187;29;19915;-78
2023/04/16 04:59:14;;;;;;;;;;;;;;;;;;4899326;29;19926;-78
2023/04/16 05:01:40;;;;;;;;;;;;;;;;;;4899443;29;19926;-79
2023/04/16 05:04:05;;;;;;;;;;;;;;;;;;4899380;29;20359;-79
2023/04/16 05:06:31;;;;;;;;;;;;;;;;;;4915839;29;19962;-79
2023/04/16 05:08:56;;;;;;;;;;;;;;;;;;4916042;29;19915;-79
2023/04/16 05:11:22;;;;;;;;;;;;;;;;;;4916043;29;19926;-79
2023/04/16 05:13:47;;;;;;;;;;;;;;;;;;4897593;29;19915;-79
2023/04/16 05:16:12;;;;;;;;;;;;;;;;;;4895950;29;20311;-79
2023/04/16 05:18:38;;;;;;;;;;;;;;;;;;4895993;29;20014;-79
2023/04/16 05:21:03;;;;;;;;;;;;;;;;;;4895796;29;19915;-79
2023/04/16 05:23:28;;;;;;;;;;;;;;;;;;4899135;29;19920;-78
2023/04/16 05:25:54;;;;;;;;;;;;;;;;;;4915633;29;20376;-78
2023/04/16 05:28:19;;;;;;;;;;;;;;;;;;4884611;29;19923;-78
2023/04/16 05:30:45;;;;;;;;;;;;;;;;;;4901175;29;19919;-78
2023/04/16 05:33:10;;;;;;;;;;;;;;;;;;4901162;29;20295;-78
2023/04/16 05:35:35;;;;;;;;;;;;;;;;;;4899788;29;19922;-79
2023/04/16 05:38:01;;;;;;;;;;;;;;;;;;4915500;29;19920;-79
2023/04/16 05:40:26;;;;;;;;;;;;;;;;;;4900855;29;19954;-80
2023/04/16 05:42:51;;;;;;;;;;;;;;;;;;4901095;29;19922;-78
2023/04/16 05:45:17;;;;;;;;;;;;;;;;;;4901145;29;20466;-79
2023/04/16 05:47:42;;;;;;;;;;;;;;;;;;4869024;29;19916;-77
2023/04/16 05:50:08;;;;;;;;;;;;;;;;;;4900980;29;19915;-79
2023/04/16 05:52:33;;;;;;;;;;;;;;;;;;4901764;29;19916;-79
2023/04/16 05:55:00;;;;;;;;;;;;;;;;;;4901879;29;20328;-78
2023/04/16 05:57:25;;;;;;;;;;;;;;;;;;4902964;29;19975;-78
2023/04/16 05:59:51;;;;;;;;;;;;;;;;;;4908484;29;19950;-79
2023/04/16 06:02:16;;;;;;;;;;;;;;;;;;4905348;29;19916;-78
2023/04/16 06:04:41;;;;;;;;;;;;;;;;;;4914122;29;19915;-78
2023/04/16 06:07:07;;;;;;;;;;;;;;;;;;4912960;29;20468;-79
2023/04/16 06:09:32;;;;;;;;;;;;;;;;;;4911263;29;19922;-79
2023/04/16 06:11:57;;;;;;;;;;;;;;;;;;4925135;29;19966;-78
2023/04/16 06:14:23;;;;;;;;;;;;;;;;;;4909628;29;20021;-79
2023/04/16 06:16:48;;;;;;;;;;;;;;;;;;4906391;29;19916;-79
2023/04/16 06:19:14;;;;;;;;;;;;;;;;;;4902794;29;19915;-79
2023/04/16 06:21:39;;;;;;;;;;;;;;;;;;4901393;29;20022;-79
2023/04/16 06:24:05;;;;;;;;;;;;;;;;;;4902562;29;20399;-79
2023/04/16 06:26:30;;;;;;;;;;;;;;;;;;4901594;29;20010;-79
2023/04/16 06:28:55;;;;;;;;;;;;;;;;;;4883989;29;19915;-79
2023/04/16 06:31:21;;;;;;;;;;;;;;;;;;4898905;29;20295;-78
2023/04/16 06:33:46;;;;;;;;;;;;;;;;;;4899783;29;19923;-78
2023/04/16 06:36:11;;;;;;;;;;;;;;;;;;4899694;29;19916;-79
2023/04/16 06:38:37;;;;;;;;;;;;;;;;;;4900029;29;19912;-79
2023/04/16 06:41:02;;;;;;;;;;;;;;;;;;4883468;29;19915;-80
2023/04/16 06:43:28;;;;;;;;;;;;;;;;;;4899899;29;19915;-79
2023/04/16 06:45:54;;;;;;;;;;;;;;;;;;4899686;29;19919;-79
2023/04/16 06:48:19;;;;;;;;;;;;;;;;;;4899906;29;19916;-79
2023/04/16 06:50:45;;;;;;;;;;;;;;;;;;4899783;29;20287;-79
2023/04/16 06:53:10;;;;;;;;;;;;;;;;;;4899730;29;20387;-79
2023/04/16 06:55:35;;;;;;;;;;;;;;;;;;4899618;29;20018;-78
2023/04/16 06:58:01;;;;;;;;;;;;;;;;;;4883292;29;19923;-79
2023/04/16 07:00:26;;;;;;;;;;;;;;;;;;4900048;29;19915;-79
2023/04/16 07:02:54;;;;;;;;;;;;;;;;;;4883629;29;19915;-79
2023/04/16 07:05:20;;;;;;;;;;;;;;;;;;4899024;29;19920;-79
2023/04/16 07:07:45;;;;;;;;;;;;;;;;;;4900117;29;20354;-79
2023/04/16 07:10:11;;;;;;;;;;;;;;;;;;4898933;29;19919;-79
2023/04/16 07:12:36;;;;;;;;;;;;;;;;;;4907024;29;19915;-78
2023/04/16 07:15:01;;;;;;;;;;;;;;;;;;4918066;29;20371;-79
2023/04/16 07:17:27;;;;;;;;;;;;;;;;;;4917582;29;19915;-79
2023/04/16 07:19:52;;;;;;;;;;;;;;;;;;4913599;29;20380;-79
2023/04/16 07:22:17;;;;;;;;;;;;;;;;;;4898780;29;19923;-79
2023/04/16 07:24:43;;;;;;;;;;;;;;;;;;4900138;29;19916;-79
2023/04/16 07:27:08;;;;;;;;;;;;;;;;;;4899687;29;19915;-78
2023/04/16 07:29:34;;;;;;;;;;;;;;;;;;4899425;29;20059;-79
2023/04/16 07:31:59;;;;;;;;;;;;;;;;;;4897791;29;19971;-78
2023/04/16 07:34:24;;;;;;;;;;;;;;;;;;4897949;29;19919;-79
2023/04/16 07:36:50;;;;;;;;;;;;;;;;;;4897535;29;19915;-78
2023/04/16 07:39:15;;;;;;;;;;;;;;;;;;4899172;29;20358;-78
2023/04/16 07:41:41;;;;;;;;;;;;;;;;;;4899791;29;19915;-79
2023/04/16 07:44:06;;;;;;;;;;;;;;;;;;4899612;29;19917;-79
2023/04/16 07:46:32;;;;;;;;;;;;;;;;;;4897243;29;20288;-78
2023/04/16 07:48:57;;;;;;;;;;;;;;;;;;4899812;29;19922;-79
2023/04/16 07:51:23;;;;;;;;;;;;;;;;;;4882384;29;19975;-79
2023/04/16 07:53:48;;;;;;;;;;;;;;;;;;4899005;29;19915;-79
2023/04/16 07:56:13;;;;;;;;;;;;;;;;;;4881868;29;19915;-79
2023/04/16 07:58:39;;;;;;;;;;;;;;;;;;4898605;29;20011;-79
2023/04/16 08:01:04;;;;;;;;;;;;;;;;;;4881573;29;19947;-79
2023/04/16 08:03:30;;;;;;;;;;;;;;;;;;4898401;29;20022;-79
2023/04/16 08:05:55;;;;;;;;;;;;;;;;;;4897461;29;19922;-79
2023/04/16 08:08:21;;;;;;;;;;;;;;;;;;4898729;29;19923;-79
2023/04/16 08:10:46;;;;;;;;;;;;;;;;;;4898369;29;19927;-80
2023/04/16 08:13:11;;;;;;;;;;;;;;;;;;4898064;29;20435;-80
2023/04/16 08:15:37;;;;;;;;;;;;;;;;;;4896849;29;19916;-79
2023/04/16 08:18:04;;;;;;;;;;;;;;;;;;4896782;29;19919;-78
2023/04/16 08:20:30;;;;;;;;;;;;;;;;;;4908762;29;19919;-79
2023/04/16 08:22:55;;;;;;;;;;;;;;;;;;4916088;29;20361;-80
2023/04/16 08:25:23;;;;;;;;;;;;;;;;;;4916717;29;20295;-79
2023/04/16 08:27:48;;;;;;;;;;;;;;;;;;4917039;29;20065;-80
2023/04/16 08:30:15;;;;;;;;;;;;;;;;;;4916673;29;20714;-79
2023/04/16 08:32:40;;;;;;;;;;;;;;;;;;4916438;29;20391;-79
2023/04/16 08:35:06;;;;;;;;;;;;;;;;;;4916538;29;20041;-79
2023/04/16 08:37:31;;;;;;;;;;;;;;;;;;4915414;29;19950;-79
2023/04/16 08:39:57;;;;;;;;;;;;;;;;;;4916536;29;19963;-79
2023/04/16 08:42:22;;;;;;;;;;;;;;;;;;4915048;29;19915;-79
2023/04/16 08:44:48;;;;;;;;;;;;;;;;;;4916442;29;20299;-79
2023/04/16 08:47:13;;;;;;;;;;;;;;;;;;4899755;29;19915;-78
2023/04/16 08:49:39;;;;;;;;;;;;;;;;;;4916773;29;19915;-79
2023/04/16 08:52:04;;;;;;;;;;;;;;;;;;4883918;29;19962;-79
2023/04/16 08:54:30;;;;;;;;;;;;;;;;;;4916633;29;19955;-79
2023/04/16 08:56:55;;;;;;;;;;;;;;;;;;4899218;29;19918;-79
2023/04/16 08:59:20;;;;;;;;;;;;;;;;;;4916479;29;19919;-79
2023/04/16 09:01:47;;;;;;;;;;;;;;;;;;4916506;29;19915;-78
2023/04/16 09:04:13;;;;;;;;;;;;;;;;;;4916329;29;20383;-78
2023/04/16 09:06:40;;;;;;;;;;;;;;;;;;4916063;29;19915;-80
2023/04/16 09:09:05;;;;;;;;;;;;;;;;;;4900722;29;20387;-79
2023/04/16 09:11:31;;;;;;;;;;;;;;;;;;4915339;29;19923;-79
2023/04/16 09:13:56;;;;;;;;;;;;;;;;;;4900743;29;19915;-80
2023/04/16 09:16:21;;;;;;;;;;;;;;;;;;4896484;29;19963;-79
2023/04/16 09:18:47;;;;;;;;;;;;;;;;;;4897393;29;20399;-79
2023/04/16 09:21:12;;;;;;;;;;;;;;;;;;4913831;29;19978;-80
2023/04/16 09:23:38;;;;;;;;;;;;;;;;;;4917434;29;20009;-80
2023/04/16 09:26:04;;;;;;;;;;;;;;;;;;4917156;29;19949;-78
2023/04/16 09:28:29;;;;;;;;;;;;;;;;;;4920832;29;19911;-79
2023/04/16 09:30:54;;;;;;;;;;;;;;;;;;4922249;29;19927;-81
2023/04/16 09:33:23;;;;;;;;;;;;;;;;;;4907206;29;19978;-80
2023/04/16 09:35:49;;;;;;;;;;;;;;;;;;4907454;29;19974;-80
2023/04/16 09:38:14;;;;;;;;;;;;;;;;;;4924766;29;19967;-77
2023/04/16 09:40:40;;;;;;;;;;;;;;;;;;4923068;29;20011;-80
2023/04/16 09:43:05;;;;;;;;;;;;;;;;;;4919960;29;19971;-79
2023/04/16 09:45:31;;;;;;;;;;;;;;;;;;4917871;29;19970;-78
2023/04/16 09:47:56;;;;;;;;;;;;;;;;;;4915213;29;20532;-86
2023/04/16 09:50:22;;;;;;;;;;;;;;;;;;4916998;29;19911;-86
2023/04/16 09:52:47;;;;;;;;;;;;;;;;;;4887032;29;19915;-87
2023/04/16 09:55:13;;;;;;;;;;;;;;;;;;4888042;29;19978;-86
2023/04/16 09:57:38;;;;;;;;;;;;;;;;;;4919299;29;19970;-84
2023/04/16 10:00:04;;;;;;;;;;;;;;;;;;4916615;29;19922;-87
2023/04/16 10:02:30;;;;;;;;;;;;;;;;;;4915260;29;20010;-86
2023/04/16 10:04:56;;;;;;;;;;;;;;;;;;4916531;29;20067;-86
2023/04/16 10:07:21;;;;;;;;;;;;;;;;;;4915361;29;19915;-86
2023/04/16 10:09:47;;;;;;;;;;;;;;;;;;4916211;29;19915;-86
2023/04/16 10:12:12;;;;;;;;;;;;;;;;;;4919630;29;19919;-86
2023/04/16 10:14:38;;;;;;;;;;;;;;;;;;4905793;29;20046;-82
2023/04/16 10:17:05;;;;;;;;;;;;;;;;;;4902693;29;19971;-83
2023/04/16 10:19:30;;;;;;;;;;;;;;;;;;4905504;29;19915;-87
2023/04/16 10:21:56;;;;;;;;;;;;;;;;;;4905654;29;19922;-86
2023/04/16 10:24:21;;;;;;;;;;;;;;;;;;4904989;29;19923;-85
2023/04/16 10:26:46;;;;;;;;;;;;;;;;;;4904875;29;19915;-79
2023/04/16 10:29:12;;;;;;;;;;;;;;;;;;4900726;29;20036;-78
2023/04/16 10:31:37;;;;;;;;;;;;;;;;;;4898495;29;20291;-79
2023/04/16 10:34:03;;;;;;;;;;;;;;;;;;4899002;29;19926;-79
2023/04/16 10:36:28;;;;;;;;;;;;;;;;;;4899834;29;19919;-79
2023/04/16 10:38:54;;;;;;;;;;;;;;;;;;4899785;29;19922;-80
2023/04/16 10:41:19;;;;;;;;;;;;;;;;;;4898957;29;19927;-78
2023/04/16 10:43:45;;;;;;;;;;;;;;;;;;4899864;29;20309;-78
2023/04/16 10:46:10;;;;;;;;;;;;;;;;;;4899462;29;19923;-77
2023/04/16 10:48:35;;;;;;;;;;;;;;;;;;4898546;29;19935;-78
2023/04/16 10:51:01;;;;;;;;;;;;;;;;;;4882863;29;20015;-78
2023/04/16 10:53:26;;;;;;;;;;;;;;;;;;4899555;29;20010;-78
2023/04/16 10:55:52;;;;;;;;;;;;;;;;;;4898132;29;19915;-78
2023/04/16 10:58:17;;;;;;;;;;;;;;;;;;4899462;29;19915;-77
2023/04/16 11:00:42;;;;;;;;;;;;;;;;;;4898346;29;19922;-78
2023/04/16 11:03:08;;;;;;;;;;;;;;;;;;4909643;29;19971;-78
2023/04/16 11:05:33;;;;;;;;;;;;;;;;;;4899405;29;19916;-79
2023/04/16 11:08:00;;;;;;;;;;;;;;;;;;4908062;29;19915;-78
2023/04/16 11:10:25;;;;;;;;;;;;;;;;;;4917270;29;19942;-78
2023/04/16 11:12:50;;;;;;;;;;;;;;;;;;4915765;29;19919;-78
2023/04/16 11:15:18;;;;;;;;;;;;;;;;;;4897873;29;20299;-77
2023/04/16 11:17:43;;;;;;;;;;;;;;;;;;4897921;29;19915;-78
2023/04/16 11:20:08;;;;;;;;;;;;;;;;;;4898719;29;19923;-78
2023/04/16 11:22:34;;;;;;;;;;;;;;;;;;4900908;29;19922;-76
2023/04/16 11:24:59;;;;;;;;;;;;;;;;;;4897576;29;20372;-76
2023/04/16 11:27:25;;;;;;;;;;;;;;;;;;4898737;29;19943;-76
2023/04/16 11:29:50;;;;;;;;;;;;;;;;;;4898650;29;19919;-76
2023/04/16 11:32:16;;;;;;;;;;;;;;;;;;4897251;29;20026;-76
2023/04/16 11:34:41;;;;;;;;;;;;;;;;;;4901341;29;19919;-81
2023/04/16 11:37:06;;;;;;;;;;;;;;;;;;4901555;29;19922;-77
2023/04/16 11:39:32;;;;;;;;;;;;;;;;;;4906589;29;20002;-76
2023/04/16 11:41:57;;;;;;;;;;;;;;;;;;4917085;29;20410;-76
2023/04/16 11:44:22;;;;;;;;;;;;;;;;;;4885134;29;19915;-75
2023/04/16 11:46:48;;;;;;;;;;;;;;;;;;4917190;29;20047;-76
2023/04/16 11:49:14;;;;;;;;;;;;;;;;;;4917121;29;19916;-75
2023/04/16 11:51:40;;;;;;;;;;;;;;;;;;4907845;29;20512;-76
2023/04/16 11:54:06;;;;;;;;;;;;;;;;;;4912527;29;20014;-75
2023/04/16 11:56:32;;;;;;;;;;;;;;;;;;4897926;29;19915;-75
2023/04/16 11:58:57;;;;;;;;;;;;;;;;;;4902832;29;19915;-75
2023/04/16 12:01:22;;;;;;;;;;;;;;;;;;4910165;29;19919;-75
2023/04/16 12:03:48;;;;;;;;;;;;;;;;;;4892394;29;19915;-75
2023/04/16 12:06:14;;;;;;;;;;;;;;;;;;4934303;29;19914;-75
2023/04/16 12:08:39;;;;;;;;;;;;;;;;;;4925484;29;20347;-75
2023/04/16 12:11:05;;;;;;;;;;;;;;;;;;4929957;29;20029;-75
2023/04/16 12:13:38;;;;;;;;;;;;;;;;;;4929101;29;20306;-75
2023/04/16 12:16:03;;;;;;;;;;;;;;;;;;4916743;29;20061;-75
2023/04/16 12:18:29;;;;;;;;;;;;;;;;;;4916841;29;19938;-75
2023/04/16 12:20:54;;;;;;;;;;;;;;;;;;4886476;29;20273;-76
2023/04/16 12:23:20;;;;;;;;;;;;;;;;;;4896594;29;19939;-76
2023/04/16 12:25:48;;;;;;;;;;;;;;;;;;4865687;29;19915;-75
2023/04/16 12:28:15;;;;;;;;;;;;;;;;;;4897803;29;20386;-75
2023/04/16 12:30:40;;;;;;;;;;;;;;;;;;4896507;29;20441;-75
2023/04/16 12:33:07;;;;;;;;;;;;;;;;;;4897010;29;19920;-76
2023/04/16 12:35:32;;;;;;;;;;;;;;;;;;4896271;29;20002;-76
2023/04/16 12:37:58;;;;;;;;;;;;;;;;;;4896660;29;20006;-75
2023/04/16 12:40:23;;;;;;;;;;;;;;;;;;4896592;29;19971;-75
2023/04/16 12:42:49;;;;;;;;;;;;;;;;;;4897885;29;19938;-75
2023/04/16 12:45:14;;;;;;;;;;;;;;;;;;4898214;29;19986;-75
2023/04/16 12:47:40;;;;;;;;;;;;;;;;;;4899730;29;20348;-75
2023/04/16 12:50:06;;;;;;;;;;;;;;;;;;4873330;29;19911;-75
2023/04/16 12:52:31;;;;;;;;;;;;;;;;;;4910641;29;19930;-76
2023/04/16 12:54:56;;;;;;;;;;;;;;;;;;4886817;29;20332;-75
2023/04/16 12:57:27;;;;;;;;;;;;;;;;;;4903319;29;19915;-75
2023/04/16 12:59:52;;;;;;;;;;;;;;;;;;4923298;29;19915;-75
2023/04/16 13:02:18;;;;;;;;;;;;;;;;;;4920377;29;20273;-74
2023/04/16 13:04:43;;;;;;;;;;;;;;;;;;4921490;29;19916;-75
2023/04/16 13:07:08;;;;;;;;;;;;;;;;;;4923278;29;19916;-76
2023/04/16 13:09:34;;;;;;;;;;;;;;;;;;4896425;29;20376;-75
2023/04/16 13:11:59;;;;;;;;;;;;;;;;;;4895848;29;19920;-74
2023/04/16 13:14:25;;;;;;;;;;;;;;;;;;4897162;29;19971;-76
2023/04/16 13:16:50;;;;;;;;;;;;;;;;;;4897020;29;19967;-76
2023/04/16 13:19:17;;;;;;;;;;;;;;;;;;4896970;29;19922;-75
2023/04/16 13:21:43;;;;;;;;;;;;;;;;;;4897280;29;19915;-81
2023/04/16 13:24:08;;;;;;;;;;;;;;;;;;4897162;29;20356;-77
2023/04/16 13:26:34;;;;;;;;;;;;;;;;;;4895857;29;19941;-76
2023/04/16 13:29:00;;;;;;;;;;;;;;;;;;4896463;29;19923;-77
2023/04/16 13:31:25;;;;;;;;;;;;;;;;;;4897272;29;19926;-77
2023/04/16 13:33:51;;;;;;;;;;;;;;;;;;4897521;29;20050;-77
2023/04/16 13:36:16;;;;;;;;;;;;;;;;;;4897880;29;19922;-77
2023/04/16 13:38:42;;;;;;;;;;;;;;;;;;4897715;29;19922;-77
2023/04/16 13:41:07;;;;;;;;;;;;;;;;;;4896902;29;19915;-77
2023/04/16 13:43:32;;;;;;;;;;;;;;;;;;4898626;29;20395;-77
2023/04/16 13:45:59;;;;;;;;;;;;;;;;;;4900908;29;19950;-76
2023/04/16 13:48:25;;;;;;;;;;;;;;;;;;4901395;29;20002;-76
2023/04/16 13:50:50;;;;;;;;;;;;;;;;;;4901331;29;20380;-77
2023/04/16 13:53:17;;;;;;;;;;;;;;;;;;4898856;29;20304;-76
2023/04/16 13:55:43;;;;;;;;;;;;;;;;;;4884179;29;19922;-76
2023/04/16 13:58:09;;;;;;;;;;;;;;;;;;4884231;29;20287;-77
2023/04/16 14:00:35;;;;;;;;;;;;;;;;;;4901956;29;19915;-85
2023/04/16 14:03:00;;;;;;;;;;;;;;;;;;4885919;29;20284;-86
2023/04/16 14:05:26;;;;;;;;;;;;;;;;;;4901567;29;19923;-83
2023/04/16 14:07:51;;;;;;;;;;;;;;;;;;4900207;29;19911;-84
2023/04/16 14:10:17;;;;;;;;;;;;;;;;;;4883834;29;19915;-82
2023/04/16 14:12:42;;;;;;;;;;;;;;;;;;4900302;29;20268;-85
2023/04/16 14:15:13;;;;;;;;;;;;;;;;;;4899569;29;20315;-85
2023/04/16 14:17:38;;;;;;;;;;;;;;;;;;4884368;29;19916;-84
2023/04/16 14:20:04;;;;;;;;;;;;;;;;;;4898685;29;19927;-84
2023/04/16 14:22:30;;;;;;;;;;;;;;;;;;4911808;29;19915;-84
2023/04/16 14:24:55;;;;;;;;;;;;;;;;;;4902702;29;19915;-84
2023/04/16 14:27:21;;;;;;;;;;;;;;;;;;4902591;29;19971;-84
2023/04/16 14:29:46;;;;;;;;;;;;;;;;;;4919755;29;19915;-85
2023/04/16 14:32:11;;;;;;;;;;;;;;;;;;4902033;29;19919;-85
2023/04/16 14:34:37;;;;;;;;;;;;;;;;;;4919109;29;19919;-85
2023/04/16 14:37:03;;;;;;;;;;;;;;;;;;4902391;29;20010;-85
2023/04/16 14:39:28;;;;;;;;;;;;;;;;;;4915992;29;19982;-85
2023/04/16 14:41:53;;;;;;;;;;;;;;;;;;4888121;29;19915;-85
2023/04/16 14:44:19;;;;;;;;;;;;;;;;;;4883538;29;20374;-85
2023/04/16 14:46:45;;;;;;;;;;;;;;;;;;4899567;29;19922;-83
2023/04/16 14:49:10;;;;;;;;;;;;;;;;;;4900126;29;19912;-85
2023/04/16 14:51:36;;;;;;;;;;;;;;;;;;4898570;29;20059;-83
2023/04/16 14:54:01;;;;;;;;;;;;;;;;;;4900283;29;19912;-84
2023/04/16 14:56:27;;;;;;;;;;;;;;;;;;4898184;29;20360;-82
2023/04/16 14:58:52;;;;;;;;;;;;;;;;;;4910280;29;19911;-83
2023/04/16 15:01:17;;;;;;;;;;;;;;;;;;4901647;29;19922;-84
2023/04/16 15:03:43;;;;;;;;;;;;;;;;;;4917233;29;20311;-83
2023/04/16 15:06:09;;;;;;;;;;;;;;;;;;4917067;29;20375;-84
2023/04/16 15:08:34;;;;;;;;;;;;;;;;;;4918131;29;19915;-82
2023/04/16 15:11:00;;;;;;;;;;;;;;;;;;4918168;29;20393;-84
2023/04/16 15:13:32;;;;;;;;;;;;;;;;;;4914177;29;20547;-85
2023/04/16 15:15:57;;;;;;;;;;;;;;;;;;4886669;29;20089;-83
2023/04/16 15:18:23;;;;;;;;;;;;;;;;;;4898535;29;20352;-84
2023/04/16 15:20:50;;;;;;;;;;;;;;;;;;4898116;29;19971;-83
2023/04/16 15:23:15;;;;;;;;;;;;;;;;;;4899322;29;19916;-83
2023/04/16 15:25:40;;;;;;;;;;;;;;;;;;4897830;29;20343;-84
2023/04/16 15:28:06;;;;;;;;;;;;;;;;;;4867404;29;19915;-83
2023/04/16 15:30:31;;;;;;;;;;;;;;;;;;4898705;29;20288;-84
2023/04/16 15:32:57;;;;;;;;;;;;;;;;;;4915714;29;19926;-84
2023/04/16 15:35:22;;;;;;;;;;;;;;;;;;4885726;29;19922;-84
2023/04/16 15:37:48;;;;;;;;;;;;;;;;;;4917738;29;19915;-84
2023/04/16 15:40:14;;;;;;;;;;;;;;;;;;4916360;29;19915;-84
2023/04/16 15:42:40;;;;;;;;;;;;;;;;;;4916760;29;20013;-84
2023/04/16 15:45:05;;;;;;;;;;;;;;;;;;4900980;29;19959;-84
2023/04/16 15:47:31;;;;;;;;;;;;;;;;;;4912267;29;19919;-84
2023/04/16 15:49:56;;;;;;;;;;;;;;;;;;4915754;29;19915;-84
2023/04/16 15:52:22;;;;;;;;;;;;;;;;;;4917818;29;20306;-84
2023/04/16 15:54:47;;;;;;;;;;;;;;;;;;4917895;29;19922;-84
2023/04/16 15:57:12;;;;;;;;;;;;;;;;;;4918963;29;19915;-83
2023/04/16 15:59:38;;;;;;;;;;;;;;;;;;4903242;29;20395;-83
2023/04/16 16:02:03;;;;;;;;;;;;;;;;;;4918908;29;19919;-83
2023/04/16 16:04:29;;;;;;;;;;;;;;;;;;4920182;29;19926;-82
2023/04/16 16:06:54;;;;;;;;;;;;;;;;;;4907905;29;19918;-82
2023/04/16 16:09:24;;;;;;;;;;;;;;;;;;4900774;29;19922;-83
2023/04/16 16:11:50;;;;;;;;;;;;;;;;;;4900822;29;19920;-82
2023/04/16 16:14:15;;;;;;;;;;;;;;;;;;4903977;29;19966;-82
2023/04/16 16:16:41;;;;;;;;;;;;;;;;;;4904444;29;19987;-82
2023/04/16 16:19:06;;;;;;;;;;;;;;;;;;4910748;29;19940;-81
2023/04/16 16:21:32;;;;;;;;;;;;;;;;;;4907719;29;19916;-83
2023/04/16 16:23:57;;;;;;;;;;;;;;;;;;4895075;29;19915;-80
2023/04/16 16:26:22;;;;;;;;;;;;;;;;;;4916692;29;19916;-79
2023/04/16 16:28:48;;;;;;;;;;;;;;;;;;4911771;29;20464;-83
2023/04/16 16:31:13;;;;;;;;;;;;;;;;;;4907208;29;19919;-83
2023/04/16 16:33:39;;;;;;;;;;;;;;;;;;4910899;29;19971;-81